Grandfield, Oklahoma
Current Conditions -  °F | °C
As of 11:26 AM on Friday 19 Dec 2014 (Local Time) from KFDR Reporting Station
Haze Haze  
Wind Chill: 39°   Ceiling: 600
Heat Index: 43°   Visibility: 4mi
Dew Point: 40°   Wind: 7mph
Humidity: 89%   Direction: 70°ENE
Pressure: 30.21"   Gusts: NA
Location:  34.23°N, 98.68°W
Report Text: KFDR 191726Z AUTO 07006KT 4SM BR OVC006 06/04 A3021 RMK AO2 CIG 005V008 T00610044
Loading
Personal Weather Stations






























Interactive Weather Map New forecast layout! Learn more

10-Day Weather Forecast

Advertisements
Track Severe Weather on mobile